createdAt,value
2022-09-26T00:01:26.345Z,8.73
2022-09-26T00:03:56.667Z,8.82
2022-09-26T00:06:23.939Z,5.95
2022-09-26T00:08:51.320Z,6.55
2022-09-26T00:11:20.835Z,7.65
2022-09-26T00:13:51.620Z,5.35
2022-09-26T00:16:18.107Z,3.90
2022-09-26T00:18:48.358Z,5.47
2022-09-26T00:21:15.420Z,6.75
2022-09-26T00:23:42.029Z,7.00
2022-09-26T00:26:09.363Z,4.38
2022-09-26T00:28:35.715Z,5.88
2022-09-26T00:31:05.711Z,7.18
2022-09-26T00:33:32.667Z,5.78
2022-09-26T00:35:59.458Z,5.07
2022-09-26T00:38:26.009Z,5.13
2022-09-26T00:40:52.809Z,6.95
2022-09-26T00:43:28.667Z,4.63
2022-09-26T00:45:58.229Z,5.10
2022-09-26T00:48:26.444Z,6.88
2022-09-26T00:50:53.240Z,7.35
2022-09-26T00:53:23.475Z,5.53
2022-09-26T00:55:59.388Z,8.23
2022-09-26T00:58:30.765Z,10.20
2022-09-26T01:00:58.560Z,6.60
2022-09-26T01:03:28.976Z,6.97
2022-09-26T01:05:56.133Z,7.25
2022-09-26T01:08:28.103Z,5.65
2022-09-26T01:10:55.277Z,5.00
2022-09-26T01:13:21.804Z,7.78
2022-09-26T01:15:48.166Z,6.32
2022-09-26T01:18:14.638Z,7.65
2022-09-26T01:20:51.703Z,5.30
2022-09-26T01:23:40.304Z,8.73
2022-09-26T01:26:45.370Z,4.57
2022-09-26T01:29:31.173Z,5.70
2022-09-26T01:32:09.842Z,9.32
2022-09-26T01:34:42.295Z,9.02
2022-09-26T01:37:18.711Z,5.60
2022-09-26T01:39:54.849Z,4.80
2022-09-26T01:42:28.787Z,4.75
2022-09-26T01:45:01.885Z,6.47
2022-09-26T01:47:37.896Z,5.60
2022-09-26T01:50:12.864Z,4.20
2022-09-26T01:52:45.511Z,4.15
2022-09-26T01:55:16.344Z,2.85
2022-09-26T01:57:46.916Z,4.55
2022-09-26T02:00:13.860Z,4.22
2022-09-26T02:02:43.678Z,5.75
2022-09-26T02:05:16.776Z,5.97
2022-09-26T02:07:50.025Z,4.47
2022-09-26T02:10:20.293Z,3.88
2022-09-26T02:12:54.706Z,6.05
2022-09-26T02:15:24.236Z,4.20
2022-09-26T02:17:57.003Z,7.90
2022-09-26T02:20:28.771Z,8.25
2022-09-26T02:22:57.381Z,6.80
2022-09-26T02:25:23.876Z,4.43
2022-09-26T02:27:50.354Z,3.35
2022-09-26T02:30:16.884Z,6.15
2022-09-26T02:32:43.294Z,7.13
2022-09-26T02:35:11.264Z,3.33
2022-09-26T02:37:37.631Z,6.13
2022-09-26T02:40:05.035Z,5.43
2022-09-26T02:42:34.075Z,5.55
2022-09-26T02:45:19.164Z,6.97
2022-09-26T02:47:58.938Z,4.40
2022-09-26T02:50:42.667Z,4.40
2022-09-26T02:53:21.267Z,4.32
2022-09-26T02:55:56.889Z,8.05
2022-09-26T02:58:33.310Z,6.40
2022-09-26T03:01:07.709Z,5.93
2022-09-26T03:03:39.640Z,6.32
2022-09-26T03:06:12.087Z,5.45
2022-09-26T03:08:42.263Z,8.18
2022-09-26T03:11:10.696Z,3.55
2022-09-26T03:13:39.298Z,5.00
2022-09-26T03:16:07.409Z,7.45
2022-09-26T03:18:39.900Z,6.88
2022-09-26T03:21:08.164Z,3.38
2022-09-26T03:23:34.741Z,2.72
2022-09-26T03:26:04.323Z,5.47
2022-09-26T03:28:35.345Z,4.47
2022-09-26T03:31:04.034Z,4.15
2022-09-26T03:33:30.392Z,5.25
2022-09-26T03:35:56.847Z,4.82
2022-09-26T03:38:24.619Z,3.38
2022-09-26T03:40:51.273Z,5.30
2022-09-26T03:43:17.700Z,6.82
2022-09-26T03:45:44.070Z,4.90
2022-09-26T03:48:10.493Z,4.85
2022-09-26T03:50:36.829Z,3.83
2022-09-26T03:53:03.244Z,3.85
2022-09-26T03:55:30.935Z,5.03
2022-09-26T03:57:59.456Z,6.55
2022-09-26T04:00:25.886Z,5.43
2022-09-26T04:02:52.278Z,4.63
2022-09-26T04:05:18.633Z,3.63
2022-09-26T04:07:45.114Z,3.22
2022-09-26T04:10:11.902Z,6.07
2022-09-26T04:12:40.109Z,5.97
2022-09-26T04:15:07.863Z,6.00
2022-09-26T04:17:34.444Z,5.32
2022-09-26T04:20:01.565Z,4.90
2022-09-26T04:22:27.939Z,5.60
2022-09-26T04:24:54.335Z,5.97
2022-09-26T04:27:20.691Z,4.93
2022-09-26T04:29:48.360Z,6.20
2022-09-26T04:32:14.716Z,6.13
2022-09-26T04:34:41.120Z,9.18
2022-09-26T04:37:07.479Z,6.15
2022-09-26T04:39:33.836Z,5.32
2022-09-26T04:42:00.192Z,5.25
2022-09-26T04:44:26.543Z,6.63
2022-09-26T04:46:54.225Z,8.35
2022-09-26T04:49:20.577Z,11.45
2022-09-26T04:51:46.931Z,10.20
2022-09-26T04:54:13.526Z,7.82
2022-09-26T04:56:39.898Z,7.22
2022-09-26T04:59:06.478Z,7.20
2022-09-26T05:01:33.014Z,8.13
2022-09-26T05:04:01.024Z,7.35
2022-09-26T05:06:27.355Z,9.02
2022-09-26T05:08:53.959Z,7.75
2022-09-26T05:11:20.344Z,10.55
2022-09-26T05:13:51.242Z,8.38
2022-09-26T05:16:19.790Z,5.25
2022-09-26T05:18:49.624Z,7.28
2022-09-26T05:21:17.372Z,8.05
2022-09-26T05:23:45.261Z,7.00
2022-09-26T05:26:16.876Z,7.03
2022-09-26T05:28:43.273Z,9.18
2022-09-26T05:31:09.689Z,10.10
2022-09-26T05:33:36.046Z,8.20
2022-09-26T05:36:02.412Z,6.90
2022-09-26T05:38:30.091Z,10.95
2022-09-26T05:40:56.529Z,8.65
2022-09-26T05:43:23.537Z,8.82
2022-09-26T05:45:49.895Z,8.10
2022-09-26T05:48:16.515Z,7.90
2022-09-26T05:50:43.856Z,8.38
2022-09-26T05:53:10.348Z,8.35
2022-09-26T05:55:38.049Z,7.65
2022-09-26T05:58:04.632Z,7.65
2022-09-26T06:00:31.042Z,7.00
2022-09-26T06:02:58.904Z,6.03
2022-09-26T06:05:25.503Z,6.03
2022-09-26T06:07:52.552Z,9.77
2022-09-26T06:10:19.956Z,8.48
2022-09-26T06:12:51.073Z,9.02
2022-09-26T06:15:17.773Z,8.60
2022-09-26T06:17:44.149Z,6.63
2022-09-26T06:20:10.523Z,5.05
2022-09-26T06:22:40.446Z,11.85
2022-09-26T06:25:07.975Z,6.40
2022-09-26T06:27:34.421Z,6.07
2022-09-26T06:30:02.112Z,10.18
2022-09-26T06:32:28.521Z,5.55
2022-09-26T06:34:55.128Z,7.45
2022-09-26T06:37:21.479Z,5.25
2022-09-26T06:39:47.815Z,5.05
2022-09-26T06:42:14.186Z,5.28
2022-09-26T06:44:40.527Z,7.72
2022-09-26T06:47:08.278Z,4.72
2022-09-26T06:49:34.645Z,6.68
2022-09-26T06:52:01.538Z,5.28
2022-09-26T06:54:27.899Z,9.15
2022-09-26T06:56:54.275Z,6.45
2022-09-26T06:59:20.614Z,5.78
2022-09-26T07:01:47.043Z,4.10
2022-09-26T07:04:15.112Z,8.40
2022-09-26T07:06:41.614Z,4.95
2022-09-26T07:09:12.021Z,7.57
2022-09-26T07:12:09.391Z,7.45
2022-09-26T07:14:25.416Z,5.72
2022-09-26T07:16:52.024Z,4.65
2022-09-26T07:19:19.721Z,5.35
2022-09-26T07:21:47.189Z,6.22
2022-09-26T07:24:13.545Z,8.23
2022-09-26T07:26:40.004Z,6.28
2022-09-26T07:29:06.510Z,6.30
2022-09-26T07:31:33.159Z,4.22
2022-09-26T07:33:59.522Z,8.30
2022-09-26T07:36:27.166Z,5.88
2022-09-26T07:38:53.609Z,4.75
2022-09-26T07:41:20.019Z,6.40
2022-09-26T07:46:32.875Z,6.32
2022-09-26T07:48:59.282Z,6.00
2022-09-26T07:51:26.996Z,7.18
2022-09-26T07:53:53.352Z,6.60
2022-09-26T07:56:19.731Z,3.92
2022-09-26T07:58:46.055Z,9.32
2022-09-26T08:01:14.545Z,6.72
2022-09-26T08:03:41.789Z,7.10
2022-09-26T08:06:09.265Z,5.75
2022-09-26T08:08:36.949Z,6.18
2022-09-26T08:11:04.626Z,11.95
2022-09-26T08:13:32.271Z,4.72
2022-09-26T08:16:03.325Z,6.70
2022-09-26T08:18:29.762Z,5.32
2022-09-26T08:20:56.239Z,5.78
2022-09-26T08:23:22.633Z,6.82
2022-09-26T08:25:50.321Z,6.38
2022-09-26T08:28:16.648Z,7.30
2022-09-26T08:30:43.010Z,6.03
2022-09-26T08:33:10.936Z,8.18
2022-09-26T08:35:37.278Z,4.97
2022-09-26T08:38:04.448Z,7.35
2022-09-26T08:40:38.415Z,5.35
2022-09-26T08:43:21.997Z,4.82
2022-09-26T08:45:57.356Z,7.35
2022-09-26T08:48:51.466Z,4.90
2022-09-26T08:51:29.377Z,5.88
2022-09-26T08:54:01.114Z,5.43
2022-09-26T08:56:32.131Z,5.28
2022-09-26T08:59:03.464Z,5.88
2022-09-26T09:01:33.795Z,9.88
2022-09-26T09:04:06.308Z,5.88
2022-09-26T09:06:34.328Z,6.57
2022-09-26T09:09:00.759Z,5.65
2022-09-26T09:11:50.336Z,6.07
2022-09-26T09:14:32.590Z,5.65
2022-09-26T09:17:09.618Z,4.75
2022-09-26T09:19:44.206Z,6.00
2022-09-26T09:22:30.529Z,8.85
2022-09-26T09:25:00.094Z,4.55
2022-09-26T09:28:00.356Z,6.53
2022-09-26T09:30:39.353Z,6.43
2022-09-26T09:33:11.961Z,4.72
2022-09-26T09:35:42.377Z,2.88
2022-09-26T09:38:15.248Z,4.47
2022-09-26T09:40:46.538Z,3.20
2022-09-26T09:43:17.088Z,4.53
2022-09-26T09:45:47.942Z,6.03
2022-09-26T09:48:15.496Z,5.28
2022-09-26T09:50:53.219Z,7.60
2022-09-26T09:53:31.766Z,6.68
2022-09-26T09:56:08.334Z,4.68
2022-09-26T09:58:49.370Z,6.13
2022-09-26T10:01:21.411Z,4.90
2022-09-26T10:03:55.160Z,5.38
2022-09-26T10:06:45.547Z,7.10
2022-09-26T10:09:38.583Z,5.32
2022-09-26T10:12:11.890Z,3.40
2022-09-26T10:17:20.789Z,6.60
2022-09-26T10:19:48.089Z,4.57
2022-09-26T10:22:18.531Z,4.63
2022-09-26T10:24:48.025Z,4.45
2022-09-26T10:27:16.829Z,3.85
2022-09-26T10:29:44.556Z,4.85
2022-09-26T10:32:11.724Z,10.27
2022-09-26T10:34:39.719Z,6.53
2022-09-26T10:37:22.408Z,5.47
2022-09-26T10:39:52.880Z,4.97
2022-09-26T10:42:21.824Z,5.35
2022-09-26T10:44:49.561Z,4.15
2022-09-26T10:47:18.425Z,3.10
2022-09-26T10:49:49.719Z,3.47
2022-09-26T10:52:21.020Z,7.43
2022-09-26T10:54:55.302Z,7.82
2022-09-26T10:57:25.709Z,8.13
2022-09-26T10:59:52.362Z,7.68
2022-09-26T11:02:22.943Z,4.63
2022-09-26T11:04:56.498Z,4.55
2022-09-26T11:07:27.421Z,3.47
2022-09-26T11:09:59.629Z,5.53
2022-09-26T11:12:27.101Z,3.55
2022-09-26T11:14:55.402Z,4.10
2022-09-26T11:17:21.791Z,6.25
2022-09-26T11:19:56.935Z,3.65
2022-09-26T11:22:32.107Z,4.32
2022-09-26T11:25:07.272Z,5.63
2022-09-26T11:27:39.224Z,6.30
2022-09-26T11:30:11.848Z,3.75
2022-09-26T11:32:40.622Z,3.72
2022-09-26T11:35:14.531Z,4.53
2022-09-26T11:37:59.933Z,5.18
2022-09-26T11:40:37.909Z,3.38
2022-09-26T11:43:16.349Z,4.25
2022-09-26T11:45:58.052Z,5.05
2022-09-26T11:48:57.654Z,3.92
2022-09-26T11:51:42.842Z,3.80
2022-09-26T11:54:24.327Z,4.57
2022-09-26T11:57:01.915Z,5.55
2022-09-26T11:59:58.069Z,5.07
2022-09-26T12:02:40.818Z,5.78
2022-09-26T12:05:29.847Z,3.78
2022-09-26T12:08:12.576Z,5.45
2022-09-26T12:10:51.899Z,5.07
2022-09-26T12:13:29.983Z,4.63
2022-09-26T12:16:05.050Z,3.83
2022-09-26T12:18:40.296Z,4.05
2022-09-26T12:21:21.157Z,4.03
2022-09-26T12:23:52.700Z,5.32
2022-09-26T12:26:26.523Z,4.63
2022-09-26T12:29:13.236Z,6.50
2022-09-26T12:31:53.718Z,4.40
2022-09-26T12:34:35.841Z,3.22
2022-09-26T12:37:18.941Z,3.75
2022-09-26T12:39:58.366Z,3.73
2022-09-26T12:42:39.495Z,3.83
2022-09-26T12:45:35.007Z,5.25
2022-09-26T12:48:14.778Z,5.25
2022-09-26T12:50:48.566Z,3.45
2022-09-26T12:53:45.567Z,4.47
2022-09-26T12:56:19.912Z,4.70
2022-09-26T12:58:58.700Z,3.67
2022-09-26T13:01:40.860Z,3.15
2022-09-26T13:04:23.564Z,4.30
2022-09-26T13:07:20.485Z,4.15
2022-09-26T13:10:03.801Z,4.95
2022-09-26T13:12:47.613Z,3.42
2022-09-26T13:15:24.306Z,3.78
2022-09-26T13:17:56.304Z,3.88
2022-09-26T13:20:31.216Z,3.00
2022-09-26T13:23:03.556Z,5.75
2022-09-26T13:25:37.094Z,2.63
2022-09-26T13:28:10.237Z,3.22
2022-09-26T13:30:39.779Z,4.75
2022-09-26T13:33:12.431Z,3.85
2022-09-26T13:35:41.549Z,2.92
2022-09-26T13:38:24.861Z,3.40
2022-09-26T13:40:59.491Z,5.63
2022-09-26T13:43:45.940Z,2.95
2022-09-26T13:46:20.383Z,4.50
2022-09-26T13:48:53.600Z,2.42
2022-09-26T13:51:25.006Z,2.80
2022-09-26T13:54:00.539Z,3.58
2022-09-26T13:56:48.201Z,4.35
2022-09-26T13:59:48.679Z,4.32
2022-09-26T14:02:21.266Z,4.22
2022-09-26T14:04:48.652Z,4.22
2022-09-26T14:07:22.077Z,3.70
2022-09-26T14:09:55.839Z,3.22
2022-09-26T14:12:33.865Z,3.28
2022-09-26T14:15:19.851Z,4.65
2022-09-26T14:18:20.382Z,2.67
2022-09-26T14:20:57.539Z,2.38
2022-09-26T14:23:35.144Z,2.83
2022-09-26T14:26:13.237Z,3.55
2022-09-26T14:28:46.992Z,4.60
2022-09-26T14:33:49.160Z,2.90
2022-09-26T14:36:27.502Z,4.35
2022-09-26T14:38:54.670Z,1.88
2022-09-26T14:41:24.881Z,4.05
2022-09-26T14:43:51.743Z,4.78
2022-09-26T14:46:23.692Z,2.92
2022-09-26T14:48:56.886Z,2.53
2022-09-26T14:51:27.007Z,2.15
2022-09-26T14:53:59.074Z,3.58
2022-09-26T14:56:43.955Z,4.95
2022-09-26T14:59:39.622Z,4.38
2022-09-26T15:02:24.925Z,4.15
2022-09-26T15:05:00.208Z,3.20
2022-09-26T15:07:27.155Z,2.80
2022-09-26T15:09:56.524Z,2.80
2022-09-26T15:12:29.764Z,1.95
2022-09-26T15:15:07.839Z,3.97
2022-09-26T15:17:40.549Z,3.72
2022-09-26T15:20:12.436Z,2.93
2022-09-26T15:22:38.786Z,2.65
2022-09-26T15:25:09.019Z,3.58
2022-09-26T15:27:35.518Z,2.20
2022-09-26T15:30:04.465Z,2.88
2022-09-26T15:32:33.432Z,2.10
2022-09-26T15:35:02.539Z,2.45
2022-09-26T15:37:30.990Z,3.35
2022-09-26T15:40:10.257Z,1.75
2022-09-26T15:42:36.648Z,2.45
2022-09-26T15:45:16.500Z,2.65
2022-09-26T15:47:43.157Z,4.18
2022-09-26T15:50:12.887Z,2.78
2022-09-26T15:52:42.599Z,1.77
2022-09-26T15:55:17.929Z,3.65
2022-09-26T15:57:46.512Z,1.83
2022-09-26T16:00:14.335Z,1.40
2022-09-26T16:02:41.490Z,2.47
2022-09-26T16:05:12.919Z,1.60
2022-09-26T16:07:47.220Z,1.58
2022-09-26T16:10:21.423Z,2.50
2022-09-26T16:12:47.990Z,1.70
2022-09-26T16:15:17.570Z,3.33
2022-09-26T16:17:51.036Z,2.17
2022-09-26T16:20:25.596Z,2.05
2022-09-26T16:22:54.671Z,4.32
2022-09-26T16:25:28.085Z,2.28
2022-09-26T16:28:18.527Z,1.95
2022-09-26T16:30:50.718Z,1.48
2022-09-26T16:33:28.081Z,2.15
2022-09-26T16:35:54.880Z,2.75
2022-09-26T16:38:26.637Z,2.75
2022-09-26T16:40:54.903Z,1.80
2022-09-26T16:43:26.105Z,4.68
2022-09-26T16:46:00.549Z,3.13
2022-09-26T16:48:36.005Z,2.15
2022-09-26T16:51:13.211Z,1.98
2022-09-26T16:53:43.221Z,2.97
2022-09-26T16:56:12.916Z,2.40
2022-09-26T16:58:45.479Z,2.33
2022-09-26T17:01:11.985Z,2.97
2022-09-26T17:03:38.536Z,3.55
2022-09-26T17:06:05.350Z,2.67
2022-09-26T17:08:31.743Z,3.55
2022-09-26T17:11:02.285Z,4.10
2022-09-26T17:13:31.700Z,4.55
2022-09-26T17:15:58.701Z,2.50
2022-09-26T17:18:27.523Z,4.00
2022-09-26T17:20:54.273Z,4.20
2022-09-26T17:23:39.257Z,4.38
2022-09-26T17:26:16.495Z,4.53
2022-09-26T17:28:43.006Z,2.80
2022-09-26T17:31:14.698Z,3.35
2022-09-26T17:33:42.284Z,3.70
2022-09-26T17:36:16.738Z,2.67
2022-09-26T17:38:43.244Z,3.17
2022-09-26T17:41:10.948Z,7.90
2022-09-26T17:43:37.307Z,2.90
2022-09-26T17:46:04.145Z,2.72
2022-09-26T17:48:30.742Z,6.78
2022-09-26T17:50:58.699Z,3.47
2022-09-26T17:53:25.365Z,3.08
2022-09-26T17:55:52.257Z,5.00
2022-09-26T17:58:20.007Z,2.47
2022-09-26T18:00:49.105Z,3.13
2022-09-26T18:03:21.098Z,3.72
2022-09-26T18:05:47.612Z,5.72
2022-09-26T18:08:18.819Z,2.85
2022-09-26T18:10:48.236Z,2.22
2022-09-26T18:13:16.082Z,4.22
2022-09-26T18:15:44.009Z,3.22
2022-09-26T18:18:14.624Z,3.33
2022-09-26T18:20:41.080Z,3.33
2022-09-26T18:23:12.799Z,2.78
2022-09-26T18:25:39.291Z,4.32
2022-09-26T18:28:11.082Z,3.70
2022-09-26T18:30:40.024Z,2.70
2022-09-26T18:33:07.820Z,2.70
2022-09-26T18:35:34.303Z,3.40
2022-09-26T18:38:00.731Z,5.20
2022-09-26T18:40:29.110Z,3.75
2022-09-26T18:42:57.614Z,4.00
2022-09-26T18:45:28.040Z,4.68
2022-09-26T18:47:55.547Z,2.78
2022-09-26T18:50:26.927Z,3.00
2022-09-26T18:52:53.392Z,3.03
2022-09-26T18:55:22.057Z,4.63
2022-09-26T18:57:48.387Z,2.40
2022-09-26T19:00:15.074Z,2.95
2022-09-26T19:02:42.419Z,1.85
2022-09-26T19:05:14.794Z,2.22
2022-09-26T19:07:43.049Z,3.38
2022-09-26T19:10:14.735Z,3.20
2022-09-26T19:12:41.085Z,3.22
2022-09-26T19:15:13.125Z,3.45
2022-09-26T19:17:39.528Z,4.68
2022-09-26T19:20:06.473Z,4.95
2022-09-26T19:22:33.219Z,2.17
2022-09-26T19:25:01.285Z,4.25
2022-09-26T19:27:31.911Z,2.97
2022-09-26T19:30:02.588Z,2.58
2022-09-26T19:32:31.765Z,3.15
2022-09-26T19:35:01.562Z,3.08
2022-09-26T19:37:28.026Z,3.72
2022-09-26T19:39:54.404Z,3.80
2022-09-26T19:42:22.078Z,4.20
2022-09-26T19:44:48.511Z,3.13
2022-09-26T19:47:17.311Z,4.00
2022-09-26T19:49:44.951Z,3.08
2022-09-26T19:52:15.549Z,4.78
2022-09-26T19:54:42.164Z,2.42
2022-09-26T19:57:14.247Z,4.05
2022-09-26T19:59:42.416Z,3.13
2022-09-26T20:02:13.423Z,1.80
2022-09-26T20:04:39.931Z,3.35
2022-09-26T20:07:10.731Z,2.90
2022-09-26T20:09:37.090Z,3.15
2022-09-26T20:12:03.667Z,2.63
2022-09-26T20:14:30.031Z,5.35
2022-09-26T20:17:00.446Z,2.85
2022-09-26T20:19:31.320Z,2.92
2022-09-26T20:21:59.964Z,4.70
2022-09-26T20:24:27.596Z,2.97
2022-09-26T20:26:54.561Z,4.30
2022-09-26T20:29:20.945Z,4.10
2022-09-26T20:31:47.426Z,5.03
2022-09-26T20:34:15.770Z,4.10
2022-09-26T20:36:48.034Z,5.45
2022-09-26T20:39:18.141Z,2.38
2022-09-26T20:41:44.484Z,3.40
2022-09-26T20:44:14.972Z,3.25
2022-09-26T20:46:48.160Z,4.05
2022-09-26T20:49:19.285Z,4.47
2022-09-26T20:51:46.515Z,2.65
2022-09-26T20:54:23.529Z,4.25
2022-09-26T20:56:49.872Z,3.95
2022-09-26T20:59:16.409Z,3.53
2022-09-26T21:01:43.023Z,3.97
2022-09-26T21:04:13.953Z,2.58
2022-09-26T21:06:41.939Z,3.22
2022-09-26T21:09:13.681Z,2.83
2022-09-26T21:11:40.062Z,3.72
2022-09-26T21:14:06.498Z,5.03
2022-09-26T21:16:32.984Z,3.72
2022-09-26T21:18:59.644Z,3.20
2022-09-26T21:21:29.507Z,3.17
2022-09-26T21:23:58.800Z,3.45
2022-09-26T21:26:27.575Z,5.15
2022-09-26T21:28:55.600Z,3.70
2022-09-26T21:31:25.542Z,3.97
2022-09-26T21:33:52.449Z,4.93
2022-09-26T21:36:19.508Z,3.42
2022-09-26T21:38:46.021Z,3.53
2022-09-26T21:41:13.750Z,2.28
2022-09-26T21:43:42.709Z,3.58
2022-09-26T21:46:09.489Z,4.60
2022-09-26T21:48:36.297Z,3.53
2022-09-26T21:51:03.770Z,4.47
2022-09-26T21:53:35.820Z,3.55
2022-09-26T21:56:07.361Z,2.95
2022-09-26T21:58:39.419Z,5.00
2022-09-26T22:01:05.874Z,2.38
2022-09-26T22:03:33.161Z,2.45
2022-09-26T22:06:02.545Z,2.67
2022-09-26T22:08:32.703Z,2.25
2022-09-26T22:10:59.056Z,3.83
2022-09-26T22:13:25.426Z,6.28
2022-09-26T22:15:53.114Z,5.53
2022-09-26T22:18:19.518Z,4.13
2022-09-26T22:20:45.940Z,3.15
2022-09-26T22:23:12.317Z,2.92
2022-09-26T22:25:42.671Z,3.60
2022-09-26T22:28:09.378Z,6.18
2022-09-26T22:30:39.054Z,5.90
2022-09-26T22:33:06.783Z,5.70
2022-09-26T22:35:33.352Z,3.15
2022-09-26T22:37:59.687Z,4.35
2022-09-26T22:40:26.196Z,2.97
2022-09-26T22:42:52.595Z,3.60
2022-09-26T22:45:18.943Z,3.78
2022-09-26T22:47:45.283Z,4.32
2022-09-26T22:50:13.090Z,4.00
2022-09-26T22:52:39.424Z,3.70
2022-09-26T22:55:06.347Z,2.92
2022-09-26T22:57:32.708Z,3.83
2022-09-26T22:59:59.099Z,2.33
2022-09-26T23:02:25.469Z,3.03
2022-09-26T23:04:51.860Z,4.25
2022-09-26T23:07:19.675Z,2.95
2022-09-26T23:09:46.599Z,3.58
2022-09-26T23:12:13.381Z,2.63
2022-09-26T23:14:39.848Z,3.20
2022-09-26T23:17:06.576Z,2.97
2022-09-26T23:19:33.064Z,2.97
2022-09-26T23:21:59.386Z,2.42
2022-09-26T23:24:28.011Z,2.92
2022-09-26T23:26:57.024Z,2.35
2022-09-26T23:29:23.391Z,2.25
2022-09-26T23:31:49.727Z,3.70
2022-09-26T23:34:16.405Z,3.28
2022-09-26T23:36:42.906Z,3.00
2022-09-26T23:39:09.476Z,2.80
2022-09-26T23:41:37.318Z,1.80
2022-09-26T23:44:03.662Z,1.67
2022-09-26T23:46:30.064Z,1.92
2022-09-26T23:48:56.531Z,2.92
2022-09-26T23:51:23.050Z,2.85
2022-09-26T23:53:49.460Z,2.25
2022-09-26T23:56:16.132Z,3.70
2022-09-26T23:58:43.923Z,4.00
